createdAt,value
2019-04-14T00:01:41.249Z,102.32
2019-04-14T00:04:13.886Z,102.73
2019-04-14T00:06:44.140Z,102.07
2019-04-14T00:09:16.211Z,106.27
2019-04-14T00:11:46.342Z,98.47
2019-04-14T00:14:16.399Z,108.70
2019-04-14T00:16:46.754Z,98.50
2019-04-14T00:19:17.353Z,98.07
2019-04-14T00:24:18.347Z,100.02
2019-04-14T00:26:48.781Z,101.02
2019-04-14T00:29:19.519Z,91.60
2019-04-14T00:31:51.062Z,96.20
2019-04-14T00:34:37.632Z,95.57
2019-04-14T00:37:12.105Z,95.87
2019-04-14T00:39:44.314Z,92.82
2019-04-14T00:42:21.346Z,89.10
2019-04-14T00:44:58.327Z,92.50
2019-04-14T00:47:29.472Z,85.17
2019-04-14T00:49:59.396Z,94.03
2019-04-14T00:52:29.848Z,87.88
2019-04-14T00:54:59.373Z,89.15
2019-04-14T00:57:29.054Z,88.45
2019-04-14T00:59:59.526Z,91.60
2019-04-14T01:02:29.698Z,90.72
2019-04-14T01:05:00.147Z,91.45
2019-04-14T01:09:59.572Z,88.42
2019-04-14T01:12:29.980Z,92.10
2019-04-14T01:15:00.620Z,90.60
2019-04-14T01:17:31.421Z,91.92
2019-04-14T01:20:01.424Z,86.28
2019-04-14T01:22:31.461Z,87.90
2019-04-14T01:25:02.210Z,86.17
2019-04-14T01:27:34.120Z,90.57
2019-04-14T01:30:05.022Z,85.30
2019-04-14T01:32:35.108Z,92.80
2019-04-14T01:35:05.333Z,88.33
2019-04-14T01:37:35.995Z,79.07
2019-04-14T01:40:07.431Z,84.07
2019-04-14T01:42:37.733Z,84.83
2019-04-14T01:45:07.951Z,84.30
2019-04-14T01:47:39.871Z,90.87
2019-04-14T01:50:10.501Z,83.90
2019-04-14T01:55:24.493Z,84.67
2019-04-14T01:57:56.772Z,82.12
2019-04-14T02:00:33.812Z,88.97
2019-04-14T02:03:04.168Z,84.25
2019-04-14T02:05:34.302Z,83.78
2019-04-14T02:08:04.449Z,83.22
2019-04-14T02:10:34.742Z,85.70
2019-04-14T02:13:04.989Z,83.58
2019-04-14T02:15:35.180Z,84.37
2019-04-14T02:18:05.607Z,83.17
2019-04-14T02:23:04.072Z,73.60
2019-04-14T02:25:33.908Z,76.12
2019-04-14T02:28:04.687Z,77.90
2019-04-14T02:30:41.462Z,78.02
2019-04-14T02:33:48.559Z,74.97
2019-04-14T02:36:21.819Z,76.22
2019-04-14T02:38:45.414Z,78.52
2019-04-14T02:41:15.624Z,74.75
2019-04-14T02:43:41.394Z,75.67
2019-04-14T02:46:05.197Z,75.67
2019-04-14T02:48:46.271Z,73.28
2019-04-14T02:51:13.820Z,68.52
2019-04-14T02:53:42.636Z,70.78
2019-04-14T02:58:44.479Z,66.82
2019-04-14T03:01:23.376Z,68.00
2019-04-14T03:03:43.701Z,71.12
2019-04-14T03:06:12.590Z,73.25
2019-04-14T03:09:00.410Z,66.55
2019-04-14T03:11:17.408Z,70.10
2019-04-14T03:14:01.181Z,70.83
2019-04-14T03:16:27.337Z,66.25
2019-04-14T03:18:52.516Z,69.55
2019-04-14T03:24:17.022Z,64.32
2019-04-14T03:27:22.370Z,68.20
2019-04-14T03:30:08.165Z,64.62
2019-04-14T03:32:39.008Z,67.42
2019-04-14T03:35:16.492Z,66.20
2019-04-14T03:39:51.377Z,63.83
2019-04-14T03:42:28.876Z,62.53
2019-04-14T03:44:56.352Z,61.98
2019-04-14T03:47:25.617Z,62.88
2019-04-14T03:50:00.001Z,65.42
2019-04-14T03:52:51.653Z,65.55
2019-04-14T03:54:52.278Z,65.30
2019-04-14T03:57:08.234Z,61.58
2019-04-14T03:59:39.124Z,60.20
2019-04-14T04:02:09.610Z,59.75
2019-04-14T04:07:08.237Z,58.92
2019-04-14T04:09:43.631Z,63.70
2019-04-14T04:12:13.907Z,58.73
2019-04-14T04:14:44.213Z,60.45
2019-04-14T04:17:15.450Z,56.98
2019-04-14T04:19:56.192Z,62.70
2019-04-14T04:22:28.142Z,61.95
2019-04-14T04:25:09.344Z,65.92
2019-04-14T04:27:41.701Z,58.95
2019-04-14T04:30:18.677Z,59.15
2019-04-14T04:32:53.510Z,55.67
2019-04-14T04:35:26.012Z,67.82
2019-04-14T04:38:03.045Z,59.33
2019-04-14T04:40:33.341Z,58.38
2019-04-14T04:43:03.818Z,53.75
2019-04-14T04:48:15.203Z,53.70
2019-04-14T04:50:45.343Z,57.08
2019-04-14T04:53:15.791Z,54.10
2019-04-14T04:55:46.065Z,58.75
2019-04-14T04:58:17.332Z,58.17
2019-04-14T05:00:48.533Z,57.48
2019-04-14T05:03:19.588Z,54.75
2019-04-14T05:06:26.487Z,51.65
2019-04-14T05:09:07.793Z,55.03
2019-04-14T05:11:42.645Z,56.70
2019-04-14T05:14:13.785Z,61.40
2019-04-14T05:16:44.014Z,64.32
2019-04-14T05:19:21.849Z,64.67
2019-04-14T05:21:45.231Z,64.80
2019-04-14T05:24:15.646Z,57.80
2019-04-14T05:26:45.977Z,50.75
2019-04-14T05:29:16.673Z,59.53
2019-04-14T05:31:46.835Z,58.17
2019-04-14T05:34:17.281Z,129.12
2019-04-14T05:36:47.858Z,80.40
2019-04-14T05:39:17.761Z,74.45
2019-04-14T05:41:58.109Z,66.28
2019-04-14T05:44:18.642Z,71.20
2019-04-14T05:46:49.127Z,101.35
2019-04-14T05:51:50.152Z,95.10
2019-04-14T05:54:20.620Z,70.90
2019-04-14T05:56:51.503Z,64.62
2019-04-14T05:59:21.981Z,61.55
2019-04-14T06:04:20.610Z,51.73
2019-04-14T06:06:50.093Z,50.90
2019-04-14T06:09:19.598Z,52.23
2019-04-14T06:11:49.213Z,45.90
2019-04-14T06:14:18.663Z,55.48
2019-04-14T06:19:17.800Z,54.40
2019-04-14T06:21:47.175Z,56.92
2019-04-14T06:24:17.494Z,46.50
2019-04-14T06:26:46.934Z,44.15
2019-04-14T06:29:35.732Z,51.45
2019-04-14T06:32:18.788Z,53.87
2019-04-14T06:35:06.137Z,47.75
2019-04-14T06:37:43.364Z,53.42
2019-04-14T06:40:12.879Z,58.20
2019-04-14T06:42:42.489Z,44.67
2019-04-14T06:45:11.942Z,46.13
2019-04-14T06:47:44.912Z,46.35
2019-04-14T06:50:13.617Z,52.58
2019-04-14T06:52:43.070Z,51.23
2019-04-14T06:55:12.528Z,47.90
2019-04-14T06:57:42.060Z,49.67
2019-04-14T07:00:12.135Z,47.83
2019-04-14T07:02:41.818Z,41.55
2019-04-14T07:05:11.658Z,46.70
2019-04-14T07:07:41.256Z,50.65
2019-04-14T07:10:10.714Z,42.27
2019-04-14T07:12:52.915Z,43.70
2019-04-14T07:15:22.575Z,44.55
2019-04-14T07:17:52.067Z,43.45
2019-04-14T07:20:22.508Z,41.35
2019-04-14T07:22:52.474Z,45.33
2019-04-14T07:25:22.583Z,45.63
2019-04-14T07:27:52.047Z,47.15
2019-04-14T07:30:23.093Z,47.48
2019-04-14T07:32:54.351Z,48.85
2019-04-14T07:35:38.282Z,45.23
2019-04-14T07:38:10.891Z,48.40
2019-04-14T07:41:03.851Z,53.33
2019-04-14T07:43:37.920Z,51.75
2019-04-14T07:46:25.438Z,44.53
2019-04-14T07:49:17.445Z,48.33
2019-04-14T07:51:51.790Z,46.42
2019-04-14T07:54:41.310Z,44.18
2019-04-14T07:57:14.913Z,42.08
2019-04-14T07:59:52.290Z,43.58
2019-04-14T08:02:23.499Z,48.40
2019-04-14T08:05:00.560Z,45.92
2019-04-14T08:07:42.713Z,44.67
2019-04-14T08:10:12.834Z,41.35
2019-04-14T08:12:42.435Z,47.53
2019-04-14T08:15:24.378Z,51.33
2019-04-14T08:17:53.943Z,48.17
2019-04-14T08:20:27.804Z,57.88
2019-04-14T08:22:57.921Z,45.25
2019-04-14T08:27:56.375Z,41.92
2019-04-14T08:30:27.571Z,45.80
2019-04-14T08:32:57.122Z,45.57
2019-04-14T08:35:26.656Z,56.70
2019-04-14T08:37:56.259Z,55.67
2019-04-14T08:40:25.797Z,56.83
2019-04-14T08:43:00.116Z,49.97
2019-04-14T08:45:34.298Z,76.12
2019-04-14T08:48:17.526Z,52.15
2019-04-14T08:50:48.724Z,46.45
2019-04-14T08:53:19.790Z,44.58
2019-04-14T08:56:21.505Z,43.08
2019-04-14T08:59:10.770Z,46.63
2019-04-14T09:01:42.163Z,48.55
2019-04-14T09:04:13.395Z,40.50
2019-04-14T09:06:44.590Z,47.73
2019-04-14T09:09:18.650Z,45.73
2019-04-14T09:11:52.791Z,68.37
2019-04-14T09:14:22.320Z,43.73
2019-04-14T09:16:51.698Z,37.08
2019-04-14T09:19:21.612Z,223.47
2019-04-14T09:21:51.229Z,43.10
2019-04-14T09:24:21.327Z,44.53
2019-04-14T09:26:53.540Z,40.60
2019-04-14T09:29:24.665Z,45.00
2019-04-14T09:31:59.194Z,36.50
2019-04-14T09:34:33.777Z,38.55
2019-04-14T09:37:05.495Z,40.40
2019-04-14T09:39:38.003Z,36.93
2019-04-14T09:42:12.842Z,37.08
2019-04-14T09:44:50.497Z,42.93
2019-04-14T09:47:22.724Z,39.67
2019-04-14T09:49:56.368Z,52.10
2019-04-14T09:52:30.949Z,61.98
2019-04-14T09:55:04.847Z,61.05
2019-04-14T09:57:35.792Z,50.58
2019-04-14T10:02:42.158Z,40.17
2019-04-14T10:05:13.125Z,39.20
2019-04-14T10:07:44.542Z,39.25
2019-04-14T10:15:14.933Z,35.07
2019-04-14T10:17:44.746Z,43.75
2019-04-14T10:20:14.587Z,38.78
2019-04-14T10:22:44.146Z,39.00
2019-04-14T10:25:14.006Z,38.38
2019-04-14T10:27:43.746Z,43.40
2019-04-14T10:30:13.296Z,45.73
2019-04-14T10:32:42.842Z,41.93
2019-04-14T10:35:12.242Z,45.00
2019-04-14T10:38:01.027Z,39.73
2019-04-14T10:40:30.593Z,47.08
2019-04-14T10:42:59.981Z,38.45
2019-04-14T10:45:29.455Z,34.20
2019-04-14T10:47:58.828Z,33.92
2019-04-14T10:50:31.197Z,44.35
2019-04-14T10:52:59.342Z,38.73
2019-04-14T10:55:28.786Z,40.65
2019-04-14T10:57:58.454Z,32.83
2019-04-14T11:00:27.916Z,41.13
2019-04-14T11:02:57.474Z,43.92
2019-04-14T11:05:28.565Z,36.40
2019-04-14T11:07:58.039Z,37.80
2019-04-14T11:10:27.430Z,35.00
2019-04-14T11:12:57.073Z,37.45
2019-04-14T11:15:26.709Z,43.20
2019-04-14T11:17:56.130Z,34.93
2019-04-14T11:20:25.503Z,32.93
2019-04-14T11:23:03.194Z,37.42
2019-04-14T11:25:25.931Z,38.98
2019-04-14T11:27:55.324Z,33.98
2019-04-14T11:30:25.179Z,41.50
2019-04-14T11:33:08.481Z,33.48
2019-04-14T11:35:56.193Z,38.78
2019-04-14T11:38:27.443Z,33.38
2019-04-14T11:41:04.505Z,35.90
2019-04-14T11:43:34.107Z,32.05
2019-04-14T11:46:04.242Z,43.03
2019-04-14T11:48:33.705Z,30.20
2019-04-14T11:51:03.435Z,37.75
2019-04-14T11:53:36.418Z,35.58
2019-04-14T11:56:06.457Z,40.85
2019-04-14T11:58:40.549Z,34.25
2019-04-14T12:01:30.024Z,32.38
2019-04-14T12:04:01.285Z,26.77
2019-04-14T12:06:50.044Z,30.30
2019-04-14T12:09:24.065Z,27.00
2019-04-14T12:11:55.147Z,32.48
2019-04-14T12:14:28.334Z,28.65
2019-04-14T12:16:58.828Z,24.12
2019-04-14T12:19:32.655Z,27.77
2019-04-14T12:22:08.025Z,27.45
2019-04-14T12:24:31.781Z,28.77
2019-04-14T12:27:01.791Z,28.25
2019-04-14T12:29:32.563Z,26.62
2019-04-14T12:32:02.223Z,27.73
2019-04-14T12:34:31.600Z,37.17
2019-04-14T12:37:02.106Z,31.20
2019-04-14T12:39:31.501Z,30.43
2019-04-14T12:42:11.700Z,26.75
2019-04-14T12:44:51.768Z,26.70
2019-04-14T12:47:25.993Z,32.58
2019-04-14T12:50:03.341Z,30.85
2019-04-14T12:52:32.915Z,27.02
2019-04-14T12:55:02.572Z,27.40
2019-04-14T12:57:37.060Z,26.52
2019-04-14T13:00:08.279Z,23.05
2019-04-14T13:02:40.260Z,25.05
2019-04-14T13:05:10.219Z,27.13
2019-04-14T13:07:39.734Z,22.27
2019-04-14T13:10:09.125Z,25.65
2019-04-14T13:12:38.551Z,26.17
2019-04-14T13:15:13.351Z,23.20
2019-04-14T13:17:42.916Z,28.45
2019-04-14T13:20:13.057Z,29.63
2019-04-14T13:22:42.508Z,26.80
2019-04-14T13:25:16.718Z,17.82
2019-04-14T13:27:46.489Z,23.95
2019-04-14T13:30:17.661Z,21.00
2019-04-14T13:32:47.075Z,21.45
2019-04-14T13:35:17.092Z,19.65
2019-04-14T13:37:49.876Z,18.62
2019-04-14T13:40:19.716Z,18.75
2019-04-14T13:42:49.379Z,25.85
2019-04-14T13:45:18.972Z,25.50
2019-04-14T13:47:48.513Z,24.87
2019-04-14T13:50:18.004Z,19.80
2019-04-14T13:52:48.661Z,25.40
2019-04-14T13:55:18.225Z,18.57
2019-04-14T13:57:49.996Z,18.95
2019-04-14T14:00:19.655Z,17.77
2019-04-14T14:02:49.329Z,17.98
2019-04-14T14:05:18.971Z,21.57
2019-04-14T14:07:48.419Z,22.60
2019-04-14T14:10:18.166Z,18.57
2019-04-14T14:12:55.383Z,18.20
2019-04-14T14:15:28.242Z,19.12
2019-04-14T14:18:06.268Z,16.50
2019-04-14T14:20:53.770Z,18.52
2019-04-14T14:23:27.949Z,20.17
2019-04-14T14:26:01.993Z,18.92
2019-04-14T14:28:31.888Z,17.37
2019-04-14T14:31:01.567Z,15.78
2019-04-14T14:33:31.094Z,18.80
2019-04-14T14:36:00.474Z,22.00
2019-04-14T14:38:29.863Z,21.90
2019-04-14T14:41:02.236Z,16.50
2019-04-14T14:43:31.902Z,18.25
2019-04-14T14:46:19.439Z,21.20
2019-04-14T14:48:53.826Z,20.92
2019-04-14T14:51:24.945Z,18.57
2019-04-14T14:53:54.470Z,18.82
2019-04-14T14:56:23.950Z,17.35
2019-04-14T14:58:53.496Z,16.65
2019-04-14T15:01:22.942Z,16.00
2019-04-14T15:03:52.343Z,19.40
2019-04-14T15:06:21.777Z,19.45
2019-04-14T15:08:51.192Z,20.30
2019-04-14T15:11:20.585Z,19.42
2019-04-14T15:13:50.268Z,17.30
2019-04-14T15:16:19.721Z,21.40
2019-04-14T15:18:49.177Z,19.17
2019-04-14T15:21:18.698Z,19.65
2019-04-14T15:23:48.104Z,21.15
2019-04-14T15:26:18.723Z,17.55
2019-04-14T15:28:48.306Z,18.02
2019-04-14T15:31:17.734Z,17.62
2019-04-14T15:33:47.164Z,20.50
2019-04-14T15:36:16.990Z,18.67
2019-04-14T15:38:46.469Z,17.73
2019-04-14T15:41:18.580Z,18.23
2019-04-14T15:43:49.620Z,22.80
2019-04-14T15:46:18.989Z,18.60
2019-04-14T15:48:48.452Z,18.62
2019-04-14T15:51:19.135Z,17.55
2019-04-14T15:53:48.686Z,18.52
2019-04-14T15:56:36.128Z,17.80
2019-04-14T15:59:10.154Z,19.17
2019-04-14T16:01:47.076Z,18.98
2019-04-14T16:04:35.092Z,15.35
2019-04-14T16:07:22.720Z,22.87
2019-04-14T16:10:10.179Z,17.55
2019-04-14T16:12:52.837Z,19.42
2019-04-14T16:15:33.318Z,18.23
2019-04-14T16:20:58.248Z,17.82
2019-04-14T16:23:49.920Z,16.65
2019-04-14T16:29:39.311Z,20.05
2019-04-14T16:32:10.404Z,16.60
2019-04-14T16:34:47.399Z,19.77
2019-04-14T16:37:17.189Z,17.77
2019-04-14T16:39:46.757Z,19.37
2019-04-14T16:42:16.151Z,19.42
2019-04-14T16:44:45.608Z,19.65
2019-04-14T16:47:15.060Z,22.20
2019-04-14T16:49:44.501Z,20.25
2019-04-14T16:52:15.602Z,23.02
2019-04-14T16:54:49.976Z,20.20
2019-04-14T16:57:39.067Z,19.57
2019-04-14T17:00:10.388Z,21.25
2019-04-14T17:02:41.191Z,22.73
2019-04-14T17:05:12.984Z,19.70
2019-04-14T17:07:42.553Z,19.30
2019-04-14T17:10:11.922Z,70.92
2019-04-14T17:12:41.398Z,90.38
2019-04-14T17:15:12.502Z,46.23
2019-04-14T17:17:43.530Z,35.20
2019-04-14T17:20:17.565Z,28.57
2019-04-14T17:22:48.704Z,36.65
2019-04-14T17:25:28.835Z,36.85
2019-04-14T17:28:05.968Z,29.12
2019-04-14T17:30:40.084Z,24.32
2019-04-14T17:33:18.078Z,22.07
2019-04-14T17:36:01.493Z,15.83
2019-04-14T17:38:36.607Z,16.77
2019-04-14T17:41:14.403Z,18.62
2019-04-14T17:43:51.589Z,20.30
2019-04-14T17:46:39.337Z,22.07
2019-04-14T17:49:19.493Z,19.95
2019-04-14T17:51:50.699Z,22.55
2019-04-14T17:54:29.281Z,20.85
2019-04-14T17:57:00.559Z,20.17
2019-04-14T17:59:37.942Z,22.10
2019-04-14T18:02:10.570Z,18.10
2019-04-14T18:04:44.435Z,15.05
2019-04-14T18:07:15.478Z,16.05
2019-04-14T18:09:52.856Z,15.48
2019-04-14T18:12:23.884Z,12.73
2019-04-14T18:15:11.864Z,14.50
2019-04-14T18:17:51.653Z,12.82
2019-04-14T18:20:22.751Z,14.47
2019-04-14T18:22:52.308Z,10.85
2019-04-14T18:25:21.782Z,12.45
2019-04-14T18:27:52.914Z,13.88
2019-04-14T18:30:27.994Z,16.67
2019-04-14T18:33:01.150Z,16.52
2019-04-14T18:35:33.035Z,18.07
2019-04-14T18:38:06.980Z,18.17
2019-04-14T18:40:50.093Z,20.08
2019-04-14T18:43:27.421Z,13.78
2019-04-14T18:45:58.423Z,20.92
2019-04-14T18:48:41.831Z,16.02
2019-04-14T18:51:15.714Z,19.77
2019-04-14T18:53:56.105Z,19.05
2019-04-14T18:56:27.138Z,22.95
2019-04-14T18:59:16.474Z,15.68
2019-04-14T19:01:47.502Z,22.05
2019-04-14T19:04:16.887Z,17.55
2019-04-14T19:06:46.260Z,15.10
2019-04-14T19:09:15.619Z,18.75
2019-04-14T19:11:56.073Z,14.47
2019-04-14T19:14:27.442Z,14.53
2019-04-14T19:17:02.827Z,17.42
2019-04-14T19:19:34.032Z,15.68
2019-04-14T19:22:03.467Z,19.23
2019-04-14T19:24:32.843Z,15.05
2019-04-14T19:27:02.273Z,16.77
2019-04-14T19:29:31.656Z,14.45
2019-04-14T19:32:01.040Z,17.05
2019-04-14T19:34:30.611Z,16.32
2019-04-14T19:37:00.414Z,20.72
2019-04-14T19:39:29.834Z,17.05
2019-04-14T19:41:59.436Z,15.93
2019-04-14T19:44:28.819Z,33.00
2019-04-14T19:46:58.444Z,21.12
2019-04-14T19:49:27.876Z,16.07
2019-04-14T19:51:57.623Z,22.58
2019-04-14T19:54:27.108Z,20.35
2019-04-14T19:56:56.495Z,15.90
2019-04-14T19:59:25.846Z,16.93
2019-04-14T20:01:55.290Z,19.37
2019-04-14T20:04:24.838Z,17.75
2019-04-14T20:06:54.383Z,17.10
2019-04-14T20:09:23.768Z,19.95
2019-04-14T20:11:53.298Z,17.23
2019-04-14T20:14:23.141Z,16.35
2019-04-14T20:16:54.754Z,18.32
2019-04-14T20:19:31.888Z,16.82
2019-04-14T20:22:02.985Z,15.93
2019-04-14T20:24:34.092Z,17.37
2019-04-14T20:27:20.235Z,22.00
2019-04-14T20:29:51.262Z,18.10
2019-04-14T20:32:27.988Z,19.73
2019-04-14T20:34:57.364Z,18.45
2019-04-14T20:37:26.757Z,16.23
2019-04-14T20:39:56.110Z,19.07
2019-04-14T20:42:25.541Z,21.12
2019-04-14T20:44:55.194Z,23.98
2019-04-14T20:47:24.574Z,20.27
2019-04-14T20:49:54.553Z,20.95
2019-04-14T20:52:23.926Z,20.75
2019-04-14T20:54:53.872Z,22.13
2019-04-14T20:57:23.645Z,18.42
2019-04-14T20:59:53.357Z,19.60
2019-04-14T21:02:30.896Z,21.40
2019-04-14T21:05:02.349Z,17.45
2019-04-14T21:07:49.796Z,21.75
2019-04-14T21:10:30.420Z,21.55
2019-04-14T21:15:44.143Z,20.55
2019-04-14T21:18:18.202Z,19.05
2019-04-14T21:20:55.328Z,21.17
2019-04-14T21:23:26.369Z,19.40
2019-04-14T21:26:01.218Z,20.12
2019-04-14T21:28:44.377Z,19.90
2019-04-14T21:31:16.474Z,19.75
2019-04-14T21:33:50.435Z,22.10
2019-04-14T21:36:30.240Z,21.25
2019-04-14T21:39:13.356Z,18.75
2019-04-14T21:41:44.552Z,20.77
2019-04-14T21:44:13.912Z,20.48
2019-04-14T21:46:44.435Z,20.52
2019-04-14T21:49:13.843Z,20.12
2019-04-14T21:52:00.090Z,17.82
2019-04-14T21:54:29.576Z,19.50
2019-04-14T21:57:17.322Z,21.57
2019-04-14T22:00:05.254Z,18.82
2019-04-14T22:02:54.492Z,20.02
2019-04-14T22:05:35.856Z,23.50
2019-04-14T22:08:09.994Z,20.95
2019-04-14T22:10:41.825Z,21.02
2019-04-14T22:13:13.297Z,23.32
2019-04-14T22:15:43.113Z,26.33
2019-04-14T22:18:12.465Z,19.67
2019-04-14T22:20:42.839Z,22.27
2019-04-14T22:23:12.712Z,24.57
2019-04-14T22:25:42.462Z,22.60
2019-04-14T22:28:15.516Z,23.75
2019-04-14T22:30:45.177Z,24.18
2019-04-14T22:33:15.280Z,23.20
2019-04-14T22:35:45.095Z,25.82
2019-04-14T22:38:15.406Z,24.45
2019-04-14T22:40:45.630Z,29.60
2019-04-14T22:43:15.328Z,26.05
2019-04-14T22:45:45.036Z,22.93
2019-04-14T22:48:14.810Z,27.83
2019-04-14T22:50:45.160Z,22.22
2019-04-14T22:53:16.681Z,26.37
2019-04-14T22:55:46.401Z,27.15
2019-04-14T22:58:16.201Z,21.27
2019-04-14T23:00:51.505Z,27.00
2019-04-14T23:03:30.240Z,23.55
2019-04-14T23:06:04.296Z,25.25
2019-04-14T23:08:36.205Z,26.07
2019-04-14T23:11:11.951Z,27.90
2019-04-14T23:13:43.126Z,27.42
2019-04-14T23:16:14.592Z,24.70
2019-04-14T23:18:55.011Z,18.95
2019-04-14T23:21:36.591Z,26.05
2019-04-14T23:24:14.035Z,22.48
2019-04-14T23:26:52.487Z,26.48
2019-04-14T23:29:14.714Z,25.82
2019-04-14T23:31:44.516Z,20.33
2019-04-14T23:34:14.114Z,27.15
2019-04-14T23:36:43.609Z,17.35
2019-04-14T23:39:13.256Z,24.18
2019-04-14T23:41:42.899Z,24.67
2019-04-14T23:44:12.727Z,27.30
2019-04-14T23:46:44.313Z,18.85
2019-04-14T23:49:13.830Z,25.92
2019-04-14T23:51:44.312Z,24.55
2019-04-14T23:56:42.601Z,28.02
2019-04-14T23:59:11.997Z,29.82
